createdAt,value
2022-09-27T00:02:33.202Z,9.17
2022-09-27T00:05:38.883Z,9.07
2022-09-27T00:08:44.602Z,9.03
2022-09-27T00:11:50.440Z,9.01
2022-09-27T00:14:55.857Z,8.98
2022-09-27T00:18:01.212Z,8.92
2022-09-27T00:21:12.135Z,8.86
2022-09-27T00:24:19.633Z,8.73
2022-09-27T00:27:26.289Z,8.69
2022-09-27T00:30:31.739Z,8.66
2022-09-27T00:33:37.057Z,8.66
2022-09-27T00:36:42.439Z,8.67
2022-09-27T00:39:47.801Z,8.68
2022-09-27T00:42:53.146Z,8.69
2022-09-27T00:46:03.886Z,8.67
2022-09-27T00:49:18.677Z,8.66
2022-09-27T00:52:28.663Z,8.65
2022-09-27T00:55:39.631Z,8.61
2022-09-27T00:58:49.921Z,8.56
2022-09-27T01:01:56.338Z,8.52
2022-09-27T01:05:02.443Z,8.49
2022-09-27T01:08:07.756Z,8.46
2022-09-27T01:11:36.916Z,8.40
2022-09-27T01:14:56.490Z,8.30
2022-09-27T01:18:22.344Z,8.27
2022-09-27T01:21:50.580Z,8.26
2022-09-27T01:25:14.137Z,8.26
2022-09-27T01:28:32.792Z,8.22
2022-09-27T01:31:44.352Z,8.14
2022-09-27T01:35:01.667Z,8.09
2022-09-27T01:38:19.214Z,8.04
2022-09-27T01:41:34.472Z,8.03
2022-09-27T01:44:46.535Z,8.02
2022-09-27T01:47:56.342Z,7.96
2022-09-27T01:51:08.012Z,7.84
2022-09-27T01:54:18.503Z,7.79
2022-09-27T01:57:28.689Z,7.80
2022-09-27T02:00:34.984Z,7.81
2022-09-27T02:03:42.057Z,7.82
2022-09-27T02:06:54.132Z,7.79
2022-09-27T02:10:03.957Z,7.76
2022-09-27T02:13:19.705Z,7.77
2022-09-27T02:16:35.169Z,7.75
2022-09-27T02:19:52.362Z,7.71
2022-09-27T02:23:04.613Z,7.66
2022-09-27T02:26:17.620Z,7.61
2022-09-27T02:29:29.203Z,7.59
2022-09-27T02:32:34.725Z,7.54
2022-09-27T02:35:40.087Z,7.48
2022-09-27T02:38:46.059Z,7.42
2022-09-27T02:41:52.129Z,7.36
2022-09-27T02:44:57.779Z,7.29
2022-09-27T02:48:13.129Z,7.24
2022-09-27T02:51:33.664Z,7.18
2022-09-27T02:54:53.554Z,7.08
2022-09-27T02:58:12.772Z,7.06
2022-09-27T03:01:26.247Z,7.03
2022-09-27T03:04:38.588Z,7.02
2022-09-27T03:07:44.281Z,6.96
2022-09-27T03:10:49.592Z,6.89
2022-09-27T03:14:08.377Z,6.82
2022-09-27T03:17:14.346Z,6.82
2022-09-27T03:20:19.895Z,6.85
2022-09-27T03:23:25.372Z,6.83
2022-09-27T03:26:30.796Z,6.83
2022-09-27T03:29:36.143Z,6.87
2022-09-27T03:32:45.291Z,6.92
2022-09-27T03:35:50.584Z,6.94
2022-09-27T03:38:56.394Z,6.95
2022-09-27T03:42:01.693Z,6.94
2022-09-27T03:45:08.388Z,6.91
2022-09-27T03:48:14.470Z,6.90
2022-09-27T03:51:20.742Z,6.90
2022-09-27T03:54:25.268Z,6.87
2022-09-27T03:57:32.063Z,6.80
2022-09-27T04:00:37.379Z,6.73
2022-09-27T04:03:42.824Z,6.68
2022-09-27T04:06:48.141Z,6.64
2022-09-27T04:09:53.452Z,6.60
2022-09-27T04:12:58.971Z,6.58
2022-09-27T04:16:04.844Z,6.54
2022-09-27T04:19:10.991Z,6.44
2022-09-27T04:22:15.930Z,6.39
2022-09-27T04:25:21.283Z,6.39
2022-09-27T04:28:28.056Z,6.37
2022-09-27T04:31:33.488Z,6.34
2022-09-27T04:34:56.600Z,6.30
2022-09-27T04:38:02.077Z,6.29
2022-09-27T04:41:07.835Z,6.27
2022-09-27T04:44:13.123Z,6.26
2022-09-27T04:47:21.149Z,6.24
2022-09-27T04:50:26.468Z,6.16
2022-09-27T04:53:32.327Z,6.10
2022-09-27T04:56:37.675Z,6.09
2022-09-27T04:59:43.116Z,6.08
2022-09-27T05:02:49.433Z,6.08
2022-09-27T05:05:55.535Z,6.09
2022-09-27T05:09:00.974Z,6.09
2022-09-27T05:12:07.865Z,6.08
2022-09-27T05:15:13.841Z,6.08
2022-09-27T05:18:19.153Z,6.08
2022-09-27T05:21:24.436Z,6.07
2022-09-27T05:24:30.476Z,6.04
2022-09-27T05:27:35.891Z,6.06
2022-09-27T05:30:41.249Z,6.08
2022-09-27T05:33:46.586Z,6.10
2022-09-27T05:36:52.069Z,6.11
2022-09-27T05:39:57.358Z,6.04
2022-09-27T05:43:02.648Z,6.00
2022-09-27T05:46:08.364Z,6.02
2022-09-27T05:49:13.741Z,6.05
2022-09-27T05:52:20.265Z,6.11
2022-09-27T05:55:27.056Z,6.15
2022-09-27T05:58:32.401Z,6.16
2022-09-27T06:01:37.828Z,6.16
2022-09-27T06:04:43.223Z,6.16
2022-09-27T06:07:49.705Z,6.19
2022-09-27T06:11:04.401Z,6.23
2022-09-27T06:14:09.910Z,6.26
2022-09-27T06:17:15.220Z,6.31
2022-09-27T06:20:20.893Z,6.39
2022-09-27T06:23:26.168Z,6.51
2022-09-27T06:26:31.997Z,6.65
2022-09-27T06:29:37.669Z,6.80
2022-09-27T06:32:42.998Z,6.95
2022-09-27T06:35:50.092Z,7.08
2022-09-27T06:38:55.389Z,7.24
2022-09-27T06:42:00.755Z,7.39
2022-09-27T06:45:07.419Z,7.53
2022-09-27T06:48:14.610Z,7.67
2022-09-27T06:51:20.322Z,7.82
2022-09-27T06:54:25.633Z,7.97
2022-09-27T06:57:48.941Z,8.12
2022-09-27T07:00:55.344Z,8.28
2022-09-27T07:04:00.757Z,8.44
2022-09-27T07:07:06.438Z,8.59
2022-09-27T07:10:12.656Z,8.72
2022-09-27T07:13:17.953Z,8.87
2022-09-27T07:16:23.335Z,9.02
2022-09-27T07:19:28.733Z,9.17
2022-09-27T07:22:34.093Z,9.31
2022-09-27T07:25:39.392Z,9.45
2022-09-27T07:28:45.195Z,9.59
2022-09-27T07:31:50.481Z,9.72
2022-09-27T07:34:55.775Z,9.85
2022-09-27T07:38:01.168Z,10.00
2022-09-27T07:41:11.053Z,10.15
2022-09-27T07:44:16.664Z,10.32
2022-09-27T07:47:24.161Z,10.47
2022-09-27T07:50:30.276Z,10.62
2022-09-27T07:53:34.183Z,10.79
2022-09-27T07:56:39.570Z,10.96
2022-09-27T07:59:45.345Z,11.15
2022-09-27T08:02:50.667Z,11.31
2022-09-27T08:05:56.001Z,11.47
2022-09-27T08:09:01.915Z,11.64
2022-09-27T08:12:07.528Z,11.77
2022-09-27T08:15:13.480Z,11.90
2022-09-27T08:18:22.035Z,12.06
2022-09-27T08:21:27.492Z,12.18
2022-09-27T08:24:32.842Z,12.29
2022-09-27T08:27:38.192Z,12.38
2022-09-27T08:30:43.497Z,12.47
2022-09-27T08:33:51.895Z,12.57
2022-09-27T08:36:57.355Z,12.69
2022-09-27T08:40:03.108Z,12.81
2022-09-27T08:43:18.994Z,12.93
2022-09-27T08:46:37.337Z,13.04
2022-09-27T08:49:46.968Z,13.16
2022-09-27T08:52:57.792Z,13.25
2022-09-27T08:56:04.408Z,13.37
2022-09-27T08:59:21.206Z,13.54
2022-09-27T09:02:27.433Z,13.69
2022-09-27T09:05:35.554Z,13.82
2022-09-27T09:08:52.374Z,13.95
2022-09-27T09:12:24.507Z,14.06
2022-09-27T09:15:54.514Z,14.20
2022-09-27T09:19:15.001Z,14.31
2022-09-27T09:22:43.491Z,14.41
2022-09-27T09:25:57.798Z,14.50
2022-09-27T09:29:23.997Z,14.61
2022-09-27T09:32:45.728Z,14.71
2022-09-27T09:35:59.183Z,14.81
2022-09-27T09:39:13.174Z,14.88
2022-09-27T09:42:26.442Z,14.99
2022-09-27T09:45:35.075Z,15.10
2022-09-27T09:48:46.696Z,15.22
2022-09-27T09:51:57.095Z,15.31
2022-09-27T09:55:08.468Z,15.40
2022-09-27T09:58:25.308Z,15.50
2022-09-27T10:01:35.784Z,15.63
2022-09-27T10:04:41.226Z,15.74
2022-09-27T10:07:48.356Z,15.88
2022-09-27T10:10:53.692Z,16.03
2022-09-27T10:13:59.084Z,16.14
2022-09-27T10:17:11.088Z,16.25
2022-09-27T10:20:27.450Z,16.38
2022-09-27T10:23:33.099Z,16.51
2022-09-27T10:26:40.857Z,16.62
2022-09-27T10:29:46.157Z,16.72
2022-09-27T10:32:57.055Z,16.87
2022-09-27T10:36:03.864Z,17.01
2022-09-27T10:39:21.928Z,17.12
2022-09-27T10:42:36.511Z,17.28
2022-09-27T10:45:42.001Z,17.45
2022-09-27T10:48:47.415Z,17.58
2022-09-27T10:51:56.506Z,17.66
2022-09-27T10:55:08.189Z,17.74
2022-09-27T10:58:22.024Z,17.72
2022-09-27T11:01:28.928Z,17.62
2022-09-27T11:04:37.257Z,17.63
2022-09-27T11:08:24.401Z,17.71
2022-09-27T11:11:30.902Z,17.82
2022-09-27T11:14:37.167Z,17.86
2022-09-27T11:17:52.162Z,17.92
2022-09-27T11:21:09.547Z,18.02
2022-09-27T11:24:27.026Z,18.18
2022-09-27T11:27:46.120Z,18.29
2022-09-27T11:31:04.014Z,18.28
2022-09-27T11:34:32.147Z,18.35
2022-09-27T11:37:49.178Z,18.50
2022-09-27T11:41:12.077Z,18.61
2022-09-27T11:44:33.806Z,18.68
2022-09-27T11:47:51.925Z,18.73
2022-09-27T11:51:11.754Z,18.80
2022-09-27T11:54:34.264Z,19.00
2022-09-27T11:57:44.679Z,19.17
2022-09-27T12:01:08.369Z,19.16
2022-09-27T12:04:33.727Z,19.04
2022-09-27T12:07:43.532Z,18.95
2022-09-27T12:10:54.816Z,18.83
2022-09-27T12:14:03.735Z,18.69
2022-09-27T12:17:14.468Z,18.64
2022-09-27T12:20:26.119Z,18.56
2022-09-27T12:23:40.993Z,18.52
2022-09-27T12:26:48.510Z,18.49
2022-09-27T12:29:56.690Z,18.44
2022-09-27T12:33:09.831Z,18.47
2022-09-27T12:36:21.163Z,18.48
2022-09-27T12:39:31.429Z,18.44
2022-09-27T12:42:42.670Z,18.41
2022-09-27T12:46:02.205Z,18.39
2022-09-27T12:49:14.482Z,18.39
2022-09-27T12:52:25.770Z,18.47
2022-09-27T12:55:53.715Z,18.56
2022-09-27T12:59:18.887Z,18.66
2022-09-27T13:03:10.997Z,18.70
2022-09-27T13:06:40.224Z,18.73
2022-09-27T13:10:15.979Z,18.79
2022-09-27T13:13:26.407Z,18.78
2022-09-27T13:16:32.625Z,18.79
2022-09-27T13:19:44.227Z,18.82
2022-09-27T13:22:50.551Z,18.83
2022-09-27T13:25:58.266Z,18.68
2022-09-27T13:29:05.138Z,18.57
2022-09-27T13:32:23.413Z,18.50
2022-09-27T13:35:30.042Z,18.44
2022-09-27T13:38:36.326Z,18.42
2022-09-27T13:42:05.002Z,18.38
2022-09-27T13:45:24.321Z,18.33
2022-09-27T13:48:40.492Z,18.29
2022-09-27T13:51:51.059Z,18.22
2022-09-27T13:54:59.790Z,18.18
2022-09-27T13:58:13.961Z,18.15
2022-09-27T14:01:28.570Z,18.14
2022-09-27T14:04:42.454Z,18.10
2022-09-27T14:07:52.030Z,18.11
2022-09-27T14:10:59.938Z,18.12
2022-09-27T14:14:07.713Z,18.11
2022-09-27T14:17:14.643Z,18.09
2022-09-27T14:20:47.274Z,18.02
2022-09-27T14:23:53.907Z,17.88
2022-09-27T14:27:17.466Z,17.78
2022-09-27T14:30:27.879Z,17.66
2022-09-27T14:33:35.533Z,17.56
2022-09-27T14:37:02.276Z,17.46
2022-09-27T14:40:20.636Z,17.35
2022-09-27T14:43:27.157Z,17.27
2022-09-27T14:46:34.527Z,17.19
2022-09-27T14:49:50.129Z,17.14
2022-09-27T14:52:57.793Z,17.07
2022-09-27T14:56:08.395Z,17.01
2022-09-27T14:59:18.947Z,16.97
2022-09-27T15:02:26.598Z,16.95
2022-09-27T15:05:34.884Z,16.92
2022-09-27T15:08:41.886Z,16.89
2022-09-27T15:11:52.989Z,16.86
2022-09-27T15:14:59.607Z,16.81
2022-09-27T15:18:20.471Z,16.75
2022-09-27T15:21:35.093Z,16.70
2022-09-27T15:24:45.623Z,16.64
2022-09-27T15:27:54.803Z,16.59
2022-09-27T15:31:01.773Z,16.54
2022-09-27T15:34:08.184Z,16.48
2022-09-27T15:37:28.427Z,16.43
2022-09-27T15:41:02.221Z,16.35
2022-09-27T15:44:36.591Z,16.25
2022-09-27T15:47:48.637Z,16.15
2022-09-27T15:50:55.130Z,16.06
2022-09-27T15:54:01.283Z,15.99
2022-09-27T15:57:12.635Z,15.91
2022-09-27T16:00:20.946Z,15.85
2022-09-27T16:03:28.175Z,15.78
2022-09-27T16:06:34.361Z,15.70
2022-09-27T16:09:40.783Z,15.64
2022-09-27T16:12:46.718Z,15.58
2022-09-27T16:15:53.450Z,15.55
2022-09-27T16:18:59.701Z,15.43
2022-09-27T16:22:05.695Z,15.25
2022-09-27T16:25:10.515Z,15.14
2022-09-27T16:28:16.598Z,14.97
2022-09-27T16:31:21.274Z,14.72
2022-09-27T16:34:27.869Z,14.42
2022-09-27T16:37:34.913Z,14.25
2022-09-27T16:40:41.039Z,14.11
2022-09-27T16:43:47.189Z,13.96
2022-09-27T16:46:53.317Z,13.80
2022-09-27T16:50:17.024Z,13.68
2022-09-27T16:53:23.190Z,13.62
2022-09-27T16:56:32.341Z,13.62
2022-09-27T16:59:38.795Z,13.59
2022-09-27T17:02:47.234Z,13.55
2022-09-27T17:05:53.482Z,13.49
2022-09-27T17:08:58.157Z,13.45
2022-09-27T17:12:07.595Z,13.37
2022-09-27T17:15:17.352Z,13.33
2022-09-27T17:18:23.345Z,13.32
2022-09-27T17:21:29.499Z,13.29
2022-09-27T17:24:33.982Z,13.23
2022-09-27T17:27:40.103Z,13.21
2022-09-27T17:30:45.448Z,13.17
2022-09-27T17:33:57.412Z,13.06
2022-09-27T17:37:05.182Z,12.96
2022-09-27T17:40:12.499Z,12.93
2022-09-27T17:43:18.526Z,12.93
2022-09-27T17:46:26.028Z,12.92
2022-09-27T17:49:49.562Z,12.90
2022-09-27T17:52:57.454Z,12.88
2022-09-27T17:56:05.579Z,12.87
2022-09-27T17:59:13.477Z,12.85
2022-09-27T18:02:20.382Z,12.83
2022-09-27T18:05:26.583Z,12.79
2022-09-27T18:08:32.409Z,12.76
2022-09-27T18:11:39.313Z,12.72
2022-09-27T18:14:45.957Z,12.69
2022-09-27T18:17:58.299Z,12.66
2022-09-27T18:21:06.210Z,12.63
2022-09-27T18:24:14.405Z,12.60
2022-09-27T18:27:21.327Z,12.56
2022-09-27T18:30:27.426Z,12.53
2022-09-27T18:33:32.201Z,12.49
2022-09-27T18:36:41.102Z,12.45
2022-09-27T18:39:47.222Z,12.42
2022-09-27T18:42:51.654Z,12.39
2022-09-27T18:46:17.812Z,12.39
2022-09-27T18:49:32.989Z,12.39
2022-09-27T18:52:40.077Z,12.39
2022-09-27T18:55:44.474Z,12.38
2022-09-27T18:58:51.898Z,12.35
2022-09-27T19:01:58.033Z,12.33
2022-09-27T19:05:03.375Z,12.31
2022-09-27T19:08:09.504Z,12.28
2022-09-27T19:11:14.377Z,12.26
2022-09-27T19:14:23.542Z,12.22
2022-09-27T19:17:29.635Z,12.16
2022-09-27T19:20:35.750Z,12.16
2022-09-27T19:23:44.906Z,12.14
2022-09-27T19:26:53.811Z,12.13
2022-09-27T19:30:00.411Z,12.11
2022-09-27T19:33:06.618Z,12.12
2022-09-27T19:36:14.666Z,12.10
2022-09-27T19:39:21.053Z,12.08
2022-09-27T19:42:27.100Z,12.09
2022-09-27T19:45:35.598Z,12.09
2022-09-27T19:48:42.036Z,12.09
2022-09-27T19:51:48.005Z,12.07
2022-09-27T19:54:54.045Z,12.05
2022-09-27T19:58:00.478Z,12.02
2022-09-27T20:01:08.651Z,12.01
2022-09-27T20:04:16.026Z,11.99
2022-09-27T20:07:22.123Z,11.98
2022-09-27T20:10:26.600Z,11.98
2022-09-27T20:13:33.764Z,11.96
2022-09-27T20:16:41.494Z,11.92
2022-09-27T20:19:47.838Z,11.88
2022-09-27T20:22:53.998Z,11.88
2022-09-27T20:26:05.141Z,11.89
2022-09-27T20:29:11.983Z,11.87
2022-09-27T20:32:33.624Z,11.84
2022-09-27T20:35:39.830Z,11.80
2022-09-27T20:38:47.826Z,11.79
2022-09-27T20:41:54.092Z,11.78
2022-09-27T20:45:00.433Z,11.77
2022-09-27T20:48:06.927Z,11.75
2022-09-27T20:51:15.419Z,11.74
2022-09-27T20:54:21.536Z,11.74
2022-09-27T20:57:46.221Z,11.74
2022-09-27T21:00:52.799Z,11.74
2022-09-27T21:04:00.379Z,11.73
2022-09-27T21:07:06.518Z,11.71
2022-09-27T21:10:11.363Z,11.70
2022-09-27T21:13:18.103Z,11.70
2022-09-27T21:16:26.094Z,11.69
2022-09-27T21:19:32.329Z,11.69
2022-09-27T21:22:36.806Z,11.68
2022-09-27T21:25:43.023Z,11.67
2022-09-27T21:28:48.526Z,11.66
2022-09-27T21:31:54.741Z,11.64
2022-09-27T21:35:01.132Z,11.64
2022-09-27T21:38:07.338Z,11.64
2022-09-27T21:41:14.787Z,11.63
2022-09-27T21:44:20.957Z,11.61
2022-09-27T21:47:25.414Z,11.59
2022-09-27T21:50:32.114Z,11.59
2022-09-27T21:53:39.625Z,11.57
2022-09-27T21:56:46.693Z,11.57
2022-09-27T21:59:52.835Z,11.57
2022-09-27T22:02:59.800Z,11.57
2022-09-27T22:06:07.279Z,11.56
2022-09-27T22:09:17.179Z,11.57
2022-09-27T22:12:23.449Z,11.57
2022-09-27T22:15:29.614Z,11.57
2022-09-27T22:18:35.450Z,11.57
2022-09-27T22:21:40.069Z,11.57
2022-09-27T22:24:46.167Z,11.57
2022-09-27T22:27:50.845Z,11.56
2022-09-27T22:30:57.306Z,11.53
2022-09-27T22:34:04.730Z,11.52
2022-09-27T22:37:10.877Z,11.51
2022-09-27T22:40:15.502Z,11.50
2022-09-27T22:43:21.751Z,11.49
2022-09-27T22:46:26.536Z,11.46
2022-09-27T22:49:32.690Z,11.45
2022-09-27T22:52:37.138Z,11.43
2022-09-27T22:55:43.498Z,11.43
2022-09-27T22:58:50.577Z,11.40
2022-09-27T23:01:56.718Z,11.38
2022-09-27T23:05:01.148Z,11.37
2022-09-27T23:08:07.294Z,11.36
2022-09-27T23:11:12.694Z,11.34
2022-09-27T23:14:21.692Z,11.34
2022-09-27T23:17:27.645Z,11.30
2022-09-27T23:20:33.702Z,11.27
2022-09-27T23:23:42.061Z,11.27
2022-09-27T23:27:09.287Z,11.26
2022-09-27T23:30:17.408Z,11.25
2022-09-27T23:33:23.589Z,11.25
2022-09-27T23:36:28.266Z,11.24
2022-09-27T23:39:34.359Z,11.25
2022-09-27T23:42:38.800Z,11.23
2022-09-27T23:45:45.155Z,11.23
2022-09-27T23:48:51.230Z,11.23
2022-09-27T23:51:57.620Z,11.22
2022-09-27T23:55:03.949Z,11.21
2022-09-27T23:58:10.694Z,11.19
